Riberalta, Bolivia
Current Conditions -  °F | °C
As of 7:00 PM on Friday 28 Nov 2014 (Local Time) from SLRI Reporting Station
Rain Showers Rain Showers  
Wind Chill: 81°   Ceiling: 20000
Heat Index: 86°   Visibility: 4mi
Dew Point: 75°   Wind: 12mph
Humidity: 84%   Direction: 360°N
Pressure: 29.77"   Gusts: NA
Location:  11°S, 66.1°W
Report Text: SLRI 282300Z 36010KT 7000 VCSH FEW017 FEW020CB BKN200 27/24 Q1008
Loading
Personal Weather Stations






























Interactive Weather Map New forecast layout! Learn more

10-Day Weather Forecast

Advertisements
Track Severe Weather on mobile